Time;durP1;ratioP1;P1;durP2;ratioP2;P2;SDS_P1;SDS_P2;PMS_P1;PMS_P2;Temp;Humidity;BMP_temperature;BMP_pressure;BME280_temperature;BME280_humidity;BME280_pressure;Samples;Min_cycle;Max_cycle;Signal;HPM_P1;HPM_P2
2021/06/01 00:01:25;;;;;;;18.15;5.97;;;;;;;14.47;50.06;101768.13;5101730;28;20058;-66
2021/06/01 00:03:51;;;;;;;16.85;5.43;;;;;;;14.43;50.04;101750.38;5104712;28;20457;-66
2021/06/01 00:06:17;;;;;;;18.90;5.75;;;;;;;14.34;51.22;101761.00;5102839;28;20132;-65
2021/06/01 00:08:43;;;;;;;18.98;6.00;;;;;;;14.24;49.49;101758.31;5103316;28;20031;-66
2021/06/01 00:11:11;;;;;;;18.67;5.93;;;;;;;14.32;50.25;101762.78;5103402;28;20031;-66
2021/06/01 00:13:36;;;;;;;18.52;6.07;;;;;;;14.28;51.30;101761.84;5102467;28;20027;-66
2021/06/01 00:16:04;;;;;;;18.30;6.35;;;;;;;14.23;49.88;101756.53;5104172;28;20423;-66
2021/06/01 00:18:29;;;;;;;18.08;5.80;;;;;;;14.25;50.54;101753.88;5101298;28;20031;-68
2021/06/01 00:20:55;;;;;;;18.40;6.28;;;;;;;14.15;50.37;101752.06;5104767;28;20019;-66
2021/06/01 00:23:21;;;;;;;21.15;6.80;;;;;;;14.08;51.58;101751.13;5101752;28;20035;-68
2021/06/01 00:25:46;;;;;;;19.08;6.15;;;;;;;14.07;51.35;101752.03;5103398;28;20020;-66
2021/06/01 00:28:12;;;;;;;19.17;6.35;;;;;;;14.07;50.90;101754.69;5102949;28;20023;-67
2021/06/01 00:30:37;;;;;;;19.63;6.55;;;;;;;13.99;51.17;101751.09;5102054;28;20074;-71
2021/06/01 00:33:02;;;;;;;18.30;6.05;;;;;;;14.05;50.77;101743.16;5103983;28;20028;-66
2021/06/01 00:35:28;;;;;;;20.05;6.30;;;;;;;13.96;50.86;101746.66;5101223;28;20051;-72
2021/06/01 00:37:53;;;;;;;19.77;6.13;;;;;;;13.92;51.58;101744.84;5104214;28;20421;-72
2021/06/01 00:40:19;;;;;;;19.35;6.30;;;;;;;13.99;52.00;101746.66;5101757;28;20059;-67
2021/06/01 00:42:44;;;;;;;18.52;6.13;;;;;;;13.97;50.78;101747.56;5103085;28;20032;-68
2021/06/01 00:45:16;;;;;;;19.17;5.97;;;;;;;13.94;49.70;101753.75;5101855;28;20515;-68
2021/06/01 00:47:42;;;;;;;20.38;6.07;;;;;;;14.02;50.56;101745.81;5102838;28;20475;-71
2021/06/01 00:50:08;;;;;;;17.65;5.90;;;;;;;14.02;50.94;101745.81;5103425;28;20035;-70
2021/06/01 00:52:33;;;;;;;19.30;6.10;;;;;;;13.89;51.35;101745.75;5101284;28;20028;-68
2021/06/01 00:54:58;;;;;;;18.85;5.72;;;;;;;13.76;50.98;101752.78;5108248;28;20024;-67
2021/06/01 00:57:24;;;;;;;17.55;5.63;;;;;;;13.71;50.55;101740.34;5104898;28;20383;-68
2021/06/01 00:59:49;;;;;;;17.95;5.72;;;;;;;13.69;50.81;101745.66;5107544;28;20043;-66
2021/06/01 01:02:14;;;;;;;18.67;5.95;;;;;;;13.64;51.08;101739.41;5106536;28;20023;-65
2021/06/01 01:04:40;;;;;;;18.42;5.82;;;;;;;13.59;52.17;101741.16;5106338;28;20028;-66
2021/06/01 01:07:17;;;;;;;17.33;5.60;;;;;;;13.55;51.38;101740.22;5107427;28;20023;-65
2021/06/01 01:09:44;;;;;;;18.00;5.80;;;;;;;13.44;51.50;101741.97;5106396;28;20467;-67
2021/06/01 01:12:33;;;;;;;18.30;5.72;;;;;;;13.44;51.96;101749.94;5106872;28;20501;-65
2021/06/01 01:15:02;;;;;;;18.50;5.57;;;;;;;13.33;52.94;101739.19;5108250;27;20541;-66
2021/06/01 01:17:49;;;;;;;18.38;5.85;;;;;;;13.31;51.94;101742.69;5100722;28;20026;-65
2021/06/01 01:20:49;;;;;;;18.20;5.85;;;;;;;13.34;51.99;101741.00;5105162;28;20032;-65
2021/06/01 01:23:17;;;;;;;17.90;5.70;;;;;;;13.24;54.31;101734.69;5105217;28;20043;-65
2021/06/01 01:25:48;;;;;;;18.75;5.80;;;;;;;13.19;54.42;101741.75;5106022;28;20051;-65
2021/06/01 01:28:44;;;;;;;17.92;5.80;;;;;;;13.20;54.82;101737.31;5106170;28;20032;-65
2021/06/01 01:31:36;;;;;;;18.23;5.78;;;;;;;13.15;54.58;101739.94;5103890;28;20040;-65
2021/06/01 01:34:04;;;;;;;18.05;5.68;;;;;;;13.12;56.81;101731.94;5101264;28;20024;-65
2021/06/01 01:36:32;;;;;;;18.38;5.90;;;;;;;12.97;56.87;101743.31;5107985;28;20031;-65
2021/06/01 01:38:58;;;;;;;17.83;5.72;;;;;;;13.01;56.13;101741.59;5099959;28;20083;-65
2021/06/01 01:41:24;;;;;;;18.65;5.95;;;;;;;12.88;56.24;101730.84;5107424;28;20047;-65
2021/06/01 01:43:52;;;;;;;18.45;5.53;;;;;;;12.84;57.03;101742.34;5104756;28;20024;-65
2021/06/01 01:46:48;;;;;;;19.50;5.75;;;;;;;12.79;58.00;101740.50;5106520;28;20024;-65
2021/06/01 01:49:32;;;;;;;18.88;5.88;;;;;;;12.83;55.65;101735.25;5102980;28;20020;-65
2021/06/01 01:52:00;;;;;;;18.80;5.80;;;;;;;12.67;58.53;101735.97;5100134;28;20116;-65
2021/06/01 01:54:29;;;;;;;18.70;6.15;;;;;;;12.65;56.73;101733.28;5099830;28;20077;-65
2021/06/01 01:57:05;;;;;;;18.50;5.80;;;;;;;12.53;57.23;101734.06;5107111;28;20024;-65
2021/06/01 01:59:31;;;;;;;17.70;6.00;;;;;;;12.39;57.99;101733.00;5100476;28;20027;-65
2021/06/01 02:01:57;;;;;;;19.45;6.03;;;;;;;12.40;56.77;101737.44;5107743;28;20485;-65
2021/06/01 02:04:28;;;;;;;18.02;6.07;;;;;;;12.47;56.84;101734.00;5103944;28;20027;-65
2021/06/01 02:06:54;;;;;;;20.48;6.10;;;;;;;12.42;56.55;101734.81;5106802;28;20028;-66
2021/06/01 02:09:20;;;;;;;19.00;6.30;;;;;;;12.26;57.79;101728.44;5104026;28;20101;-65
2021/06/01 02:11:46;;;;;;;18.08;6.00;;;;;;;12.27;58.46;101731.13;5106007;28;20062;-65
2021/06/01 02:14:11;;;;;;;18.10;6.22;;;;;;;12.28;57.93;101732.03;5105395;28;20474;-65
2021/06/01 02:16:41;;;;;;;19.40;6.28;;;;;;;12.13;59.18;101728.31;5104355;28;20024;-65
2021/06/01 02:19:09;;;;;;;19.70;6.32;;;;;;;12.13;59.53;101732.72;5106114;28;20020;-65
2021/06/01 02:24:20;;;;;;;17.35;6.10;;;;;;;12.18;57.52;101737.19;5105350;28;20028;-65
2021/06/01 02:27:19;;;;;;;20.95;6.35;;;;;;;12.14;57.43;101737.16;5105561;28;20024;-65
2021/06/01 02:30:02;;;;;;;18.27;6.15;;;;;;;12.11;58.30;101742.41;5060783;28;20519;-65
2021/06/01 02:32:33;;;;;;;19.48;6.43;;;;;;;12.11;59.40;101737.13;5060390;28;20535;-65
2021/06/01 02:35:02;;;;;;;18.63;6.25;;;;;;;12.08;59.30;101734.44;5056756;28;20079;-65
2021/06/01 02:37:28;;;;;;;19.48;6.43;;;;;;;12.05;60.37;101724.69;5064065;28;20035;-66
2021/06/01 02:39:55;;;;;;;18.63;6.40;;;;;;;12.00;60.04;101723.75;5060387;28;20389;-65
2021/06/01 02:42:21;;;;;;;19.63;6.60;;;;;;;11.91;60.82;101727.13;5062983;28;20499;-67
2021/06/01 02:44:46;;;;;;;19.17;6.60;;;;;;;11.94;60.80;101728.94;5061857;28;20114;-71
2021/06/01 02:47:12;;;;;;;19.40;6.40;;;;;;;11.95;60.38;101725.44;5061483;28;20585;-68
2021/06/01 02:49:38;;;;;;;18.60;6.70;;;;;;;11.77;59.93;101724.28;5062541;28;20048;-70
2021/06/01 02:52:04;;;;;;;19.60;6.18;;;;;;;11.76;60.49;101727.81;5060597;28;20032;-70
2021/06/01 02:54:30;;;;;;;19.35;6.40;;;;;;;11.61;60.75;101727.63;5063518;28;20041;-71
2021/06/01 02:56:55;;;;;;;19.13;6.45;;;;;;;11.55;61.71;101722.19;5060341;28;20053;-72
2021/06/01 02:59:21;;;;;;;19.75;6.70;;;;;;;11.42;61.34;101723.81;5062528;28;20082;-70
2021/06/01 03:01:49;;;;;;;18.77;6.63;;;;;;;11.35;62.59;101730.75;5061154;28;20111;-71
2021/06/01 03:04:16;;;;;;;18.98;6.90;;;;;;;11.27;63.35;101730.66;5062128;28;20412;-67
2021/06/01 03:06:46;;;;;;;19.17;6.72;;;;;;;11.33;62.24;101730.72;5085756;28;20059;-71
2021/06/01 03:09:12;;;;;;;19.83;7.10;;;;;;;11.24;61.95;101735.91;5103859;28;20023;-67
2021/06/01 03:11:38;;;;;;;20.25;7.10;;;;;;;11.26;62.29;101735.91;5104864;28;20066;-66
2021/06/01 03:14:03;;;;;;;19.55;6.95;;;;;;;11.22;62.02;101736.72;5102713;28;20184;-67
2021/06/01 03:16:29;;;;;;;20.05;7.00;;;;;;;11.18;63.60;101732.25;5104829;28;20011;-67
2021/06/01 03:18:54;;;;;;;20.52;7.15;;;;;;;11.13;63.67;101729.53;5102748;28;20090;-67
2021/06/01 03:21:19;;;;;;;19.27;6.85;;;;;;;11.15;64.51;101738.38;5104534;28;20390;-68
2021/06/01 03:23:46;;;;;;;18.65;6.60;;;;;;;11.11;63.63;101737.44;5103464;28;20111;-67
2021/06/01 03:26:12;;;;;;;19.95;6.97;;;;;;;11.16;62.70;101738.41;5103759;28;20103;-66
2021/06/01 03:28:38;;;;;;;20.83;7.10;;;;;;;11.14;62.04;101729.56;5104592;28;20449;-67
2021/06/01 03:31:05;;;;;;;19.42;7.20;;;;;;;11.03;62.75;101738.19;5102109;28;20048;-68
2021/06/01 03:33:31;;;;;;;18.80;7.00;;;;;;;11.03;63.12;101736.41;5105872;28;20099;-65
2021/06/01 03:35:57;;;;;;;19.58;7.35;;;;;;;11.05;64.07;101741.75;5102069;28;20439;-65
2021/06/01 03:38:22;;;;;;;19.65;7.00;;;;;;;11.02;63.60;101729.34;5104783;28;20030;-65
2021/06/01 03:40:48;;;;;;;20.08;6.97;;;;;;;10.96;64.36;101743.34;5102914;28;20136;-65
2021/06/01 03:43:13;;;;;;;20.63;7.38;;;;;;;10.92;63.48;101748.56;5103290;28;20115;-65
2021/06/01 03:45:38;;;;;;;19.58;7.20;;;;;;;10.83;64.30;101746.66;5104215;28;20094;-65
2021/06/01 03:48:04;;;;;;;21.55;7.35;;;;;;;10.78;65.78;101740.41;5101987;28;20028;-65
2021/06/01 03:50:30;;;;;;;19.70;7.28;;;;;;;10.89;65.69;101746.78;5105435;28;20032;-65
2021/06/01 03:52:56;;;;;;;21.25;7.40;;;;;;;10.81;66.53;101745.75;5101912;28;20028;-65
2021/06/01 03:55:21;;;;;;;19.65;7.15;;;;;;;10.79;70.10;101736.88;5104742;28;20031;-65
2021/06/01 03:57:49;;;;;;;20.00;7.85;;;;;;;10.68;69.02;101741.13;5103104;28;20019;-65
2021/06/01 04:00:18;;;;;;;20.95;7.25;;;;;;;10.77;67.24;101741.28;5103426;28;20474;-65
2021/06/01 04:02:44;;;;;;;20.08;7.60;;;;;;;10.76;67.54;101742.13;5103314;28;20076;-65
2021/06/01 04:05:10;;;;;;;20.33;7.70;;;;;;;10.75;69.16;101743.88;5102684;28;20020;-65
2021/06/01 04:07:35;;;;;;;20.05;7.40;;;;;;;10.71;69.10;101741.16;5104364;28;20030;-65
2021/06/01 04:10:02;;;;;;;21.15;7.63;;;;;;;10.66;68.72;101746.38;5101557;28;20487;-65
2021/06/01 04:12:28;;;;;;;22.45;8.00;;;;;;;10.73;67.91;101745.63;5103112;28;20046;-65
2021/06/01 04:14:53;;;;;;;20.63;7.75;;;;;;;10.82;67.56;101743.13;5101624;28;20036;-65
2021/06/01 04:17:18;;;;;;;21.50;8.13;;;;;;;10.75;67.40;101740.34;5103605;28;20032;-71
2021/06/01 04:19:44;;;;;;;22.08;8.23;;;;;;;10.77;68.24;101743.91;5102809;28;20050;-72
2021/06/01 04:22:10;;;;;;;23.60;9.30;;;;;;;10.75;68.55;101745.66;5101042;28;20040;-67
2021/06/01 04:24:35;;;;;;;20.55;8.65;;;;;;;10.82;68.31;101740.50;5104196;28;20024;-68
2021/06/01 04:27:01;;;;;;;21.48;8.65;;;;;;;10.93;68.34;101745.06;5100925;28;20038;-71
2021/06/01 04:29:27;;;;;;;22.40;9.38;;;;;;;10.93;67.84;101747.72;5103805;28;20110;-70
2021/06/01 04:31:53;;;;;;;23.42;9.43;;;;;;;11.04;67.48;101743.50;5101608;28;20108;-74
2021/06/01 04:34:18;;;;;;;24.33;9.02;;;;;;;11.11;67.85;101740.09;5103316;28;20435;-72
2021/06/01 04:36:44;;;;;;;22.77;9.70;;;;;;;11.14;67.23;101737.50;5103238;28;20023;-75
2021/06/01 04:39:10;;;;;;;22.40;9.48;;;;;;;11.19;68.25;101739.34;5101735;28;20052;-72
2021/06/01 04:41:36;;;;;;;22.98;9.90;;;;;;;11.24;67.37;101741.19;5103124;28;20030;-75
2021/06/01 04:44:01;;;;;;;25.38;10.32;;;;;;;11.31;67.13;101734.22;5100331;28;20025;-70
2021/06/01 04:46:27;;;;;;;23.08;9.93;;;;;;;11.32;66.73;101734.25;5102371;28;20035;-70
2021/06/01 04:48:52;;;;;;;23.40;10.48;;;;;;;11.39;67.05;101737.88;5100615;28;20039;-72
2021/06/01 04:51:19;;;;;;;23.10;10.50;;;;;;;11.46;66.52;101738.84;5102312;28;20386;-74
2021/06/01 04:53:52;;;;;;;22.35;10.43;;;;;;;11.55;66.85;101736.34;5101741;28;20486;-73
2021/06/01 04:56:18;;;;;;;24.35;10.93;;;;;;;11.58;66.18;101739.03;5102021;28;20028;-72
2021/06/01 04:58:44;;;;;;;24.52;10.65;;;;;;;11.69;65.50;101732.16;5101895;28;20036;-71
2021/06/01 05:01:09;;;;;;;25.80;11.65;;;;;;;11.77;66.11;101734.00;5100834;28;20020;-72
2021/06/01 05:03:34;;;;;;;25.05;10.88;;;;;;;11.87;65.94;101733.25;5102832;28;20059;-71
2021/06/01 05:06:00;;;;;;;23.35;10.63;;;;;;;11.98;65.98;101736.06;5093055;28;20115;-72
2021/06/01 05:08:25;;;;;;;24.23;11.32;;;;;;;12.02;66.61;101735.25;5090779;28;20028;-75
2021/06/01 05:10:52;;;;;;;23.58;10.85;;;;;;;12.08;65.69;101735.31;5090800;28;20035;-75
2021/06/01 05:13:17;;;;;;;22.92;10.18;;;;;;;12.17;65.28;101734.53;5090174;28;20047;-72
2021/06/01 05:15:44;;;;;;;23.05;11.38;;;;;;;12.25;65.94;101739.94;5089625;28;20063;-73
2021/06/01 05:18:10;;;;;;;24.17;11.18;;;;;;;12.37;65.15;101738.31;5089452;28;21652;-79
2021/06/01 05:20:35;;;;;;;25.90;11.48;;;;;;;12.45;64.85;101734.84;5088798;28;20382;-74
2021/06/01 05:23:00;;;;;;;23.48;10.80;;;;;;;12.54;63.80;101737.63;5090532;28;20074;-73
2021/06/01 05:25:26;;;;;;;23.90;10.90;;;;;;;12.58;65.00;101739.41;5089941;28;20038;-65
2021/06/01 05:27:51;;;;;;;23.17;10.30;;;;;;;12.71;65.73;101735.09;5090510;28;20020;-65
2021/06/01 05:30:22;;;;;;;26.30;10.77;;;;;;;12.87;65.42;101730.84;5089403;28;20031;-64
2021/06/01 05:35:32;;;;;;;24.55;11.55;;;;;;;13.00;64.98;101729.19;5090016;28;20072;-64
2021/06/01 05:38:01;;;;;;;24.05;11.35;;;;;;;13.08;65.22;101724.84;5087500;28;20020;-64
2021/06/01 05:40:27;;;;;;;23.23;11.00;;;;;;;13.17;63.62;101726.66;5054727;28;1053774;-63
2021/06/01 05:42:52;;;;;;;22.70;10.63;;;;;;;13.23;62.98;101729.38;5095480;28;20115;-64
2021/06/01 05:45:17;;;;;;;23.85;10.65;;;;;;;13.27;62.71;101724.97;5093291;28;20028;-65
2021/06/01 05:47:43;;;;;;;23.83;10.25;;;;;;;13.32;62.30;101726.75;5095073;28;20042;-66
2021/06/01 05:50:08;;;;;;;23.23;10.02;;;;;;;13.51;60.24;101727.81;5095062;28;20467;-64
2021/06/01 05:52:35;;;;;;;22.67;9.90;;;;;;;13.68;60.24;101727.03;5092980;28;20028;-65
2021/06/01 05:55:02;;;;;;;22.50;9.68;;;;;;;13.84;58.98;101730.66;5095351;28;20371;-65
2021/06/01 05:57:28;;;;;;;23.10;9.63;;;;;;;14.01;57.87;101723.66;5093824;28;20028;-66
2021/06/01 05:59:53;;;;;;;22.90;9.57;;;;;;;14.15;58.30;101730.78;5094856;28;20035;-65
2021/06/01 06:02:18;;;;;;;22.63;9.80;;;;;;;14.30;57.01;101726.41;5092984;28;20029;-65
2021/06/01 06:04:44;;;;;;;26.08;9.60;;;;;;;14.32;56.53;101725.53;5093808;28;20031;-65
2021/06/01 06:07:09;;;;;;;23.25;9.90;;;;;;;14.44;56.85;101722.91;5094352;28;21671;-66
2021/06/01 06:09:34;;;;;;;23.30;9.55;;;;;;;14.48;56.57;101724.69;5096563;28;20024;-66
2021/06/01 06:12:00;;;;;;;22.90;9.30;;;;;;;14.55;56.38;101721.16;5095703;28;20054;-65
2021/06/01 06:14:25;;;;;;;24.25;9.20;;;;;;;14.60;56.17;101711.38;5094308;28;20105;-64
2021/06/01 06:16:55;;;;;;;21.48;9.20;;;;;;;14.63;56.82;101719.44;5093649;28;20455;-64
2021/06/01 06:19:21;;;;;;;23.83;9.30;;;;;;;14.78;55.10;101713.22;5093226;28;20036;-65
2021/06/01 06:21:46;;;;;;;23.63;9.35;;;;;;;14.87;55.43;101722.09;5093026;28;20035;-64
2021/06/01 06:24:12;;;;;;;22.73;9.75;;;;;;;14.95;54.66;101720.31;5094350;28;20482;-64
2021/06/01 06:26:37;;;;;;;22.08;9.52;;;;;;;14.98;55.40;101718.56;5094523;28;20112;-64
2021/06/01 06:29:02;;;;;;;22.55;9.07;;;;;;;15.05;55.05;101711.44;5093331;28;20048;-66
2021/06/01 06:31:28;;;;;;;23.67;9.50;;;;;;;15.08;55.32;101716.78;5093785;28;20146;-66
2021/06/01 06:33:53;;;;;;;23.63;9.35;;;;;;;15.16;54.05;101719.44;5094449;28;20020;-66
2021/06/01 06:36:18;;;;;;;22.55;9.52;;;;;;;15.21;54.89;101716.78;5093245;28;20035;-66
2021/06/01 06:38:46;;;;;;;23.95;9.98;;;;;;;15.24;55.40;101720.31;5094015;28;20028;-65
2021/06/01 06:41:14;;;;;;;22.42;9.70;;;;;;;15.33;54.26;101720.31;5092373;28;20040;-65
2021/06/01 06:43:48;;;;;;;22.83;9.00;;;;;;;15.47;54.56;101716.72;5092433;28;20460;-63
2021/06/01 06:46:17;;;;;;;21.75;9.25;;;;;;;15.63;53.77;101720.25;5095199;28;20024;-66
2021/06/01 06:48:42;;;;;;;22.50;9.15;;;;;;;15.74;51.79;101722.88;5092873;28;20026;-64
2021/06/01 06:51:14;;;;;;;23.17;9.25;;;;;;;15.89;52.01;101720.19;5092715;28;20028;-66
2021/06/01 06:53:51;;;;;;;22.52;9.00;;;;;;;16.03;51.64;101723.69;5092857;28;20034;-66
2021/06/01 06:56:16;;;;;;;21.48;9.32;;;;;;;16.06;51.62;101724.56;5090833;28;20024;-63
2021/06/01 06:58:42;;;;;;;20.50;8.68;;;;;;;16.13;52.69;101726.31;5092828;28;20085;-65
2021/06/01 07:01:09;;;;;;;22.83;8.75;;;;;;;16.17;52.64;101720.94;5092251;28;20111;-65
2021/06/01 07:03:34;;;;;;;22.08;9.13;;;;;;;16.22;53.16;101720.91;5093868;28;20118;-64
2021/06/01 07:06:00;;;;;;;21.00;8.30;;;;;;;16.37;51.45;101719.97;5093676;28;20517;-65
2021/06/01 07:08:25;;;;;;;21.63;8.60;;;;;;;16.47;51.86;101718.09;5090364;28;20035;-65
2021/06/01 07:10:50;;;;;;;21.73;8.88;;;;;;;16.59;51.50;101717.16;5092647;28;20434;-64
2021/06/01 07:13:16;;;;;;;22.30;8.40;;;;;;;16.69;49.74;101719.75;5094508;28;20540;-64
2021/06/01 07:15:47;;;;;;;22.90;8.15;;;;;;;16.81;49.90;101723.22;5092386;28;20477;-64
2021/06/01 07:18:14;;;;;;;21.25;8.05;;;;;;;16.99;50.26;101719.56;5088360;28;20056;-66
2021/06/01 07:20:39;;;;;;;21.95;7.82;;;;;;;17.09;51.17;101715.91;5092780;28;20028;-66
2021/06/01 07:23:05;;;;;;;19.63;7.43;;;;;;;17.21;49.00;101720.25;5090141;28;20097;-65
2021/06/01 07:25:31;;;;;;;21.13;7.97;;;;;;;17.29;48.16;101721.06;5094390;28;20020;-63
2021/06/01 07:27:57;;;;;;;20.95;8.43;;;;;;;17.35;47.60;101718.31;5092280;28;20397;-64
2021/06/01 07:30:23;;;;;;;21.27;7.72;;;;;;;17.47;47.23;101717.31;5092260;28;20028;-66
2021/06/01 07:32:48;;;;;;;20.67;7.47;;;;;;;17.59;48.08;101722.53;5092723;28;20028;-65
2021/06/01 07:35:15;;;;;;;21.35;7.65;;;;;;;17.71;47.72;101720.63;5091691;28;20025;-64
2021/06/01 07:37:41;;;;;;;20.83;7.47;;;;;;;17.81;47.01;101716.03;5092294;28;20050;-64
2021/06/01 07:40:07;;;;;;;20.05;7.43;;;;;;;17.98;47.85;101714.06;5092861;28;20052;-64
2021/06/01 07:42:32;;;;;;;20.25;7.90;;;;;;;18.14;46.09;101713.88;5091843;28;20031;-64
2021/06/01 07:44:57;;;;;;;20.42;8.05;;;;;;;18.22;45.22;101710.19;5093417;28;20031;-64
2021/06/01 07:47:25;;;;;;;21.63;8.00;;;;;;;18.37;45.31;101703.75;5091824;28;20024;-64
2021/06/01 07:49:50;;;;;;;21.38;8.02;;;;;;;18.47;44.38;101705.38;5093144;28;20040;-64
2021/06/01 07:52:15;;;;;;;20.20;7.57;;;;;;;18.55;44.42;101704.38;5091399;28;20059;-64
2021/06/01 07:54:40;;;;;;;20.65;7.72;;;;;;;18.64;44.74;101702.44;5091417;28;20040;-64
2021/06/01 07:57:06;;;;;;;19.73;7.53;;;;;;;18.71;44.58;101705.94;5091471;28;20020;-64
2021/06/01 07:59:31;;;;;;;20.83;7.18;;;;;;;18.85;42.52;101707.50;5092033;28;20055;-64
2021/06/01 08:01:57;;;;;;;21.10;7.00;;;;;;;18.99;42.99;101694.78;5091263;28;20035;-64
2021/06/01 08:04:22;;;;;;;18.80;6.40;;;;;;;19.07;41.42;101697.31;5092580;28;20043;-65
2021/06/01 08:06:47;;;;;;;20.73;6.50;;;;;;;19.06;41.81;101685.72;5091608;28;20023;-65
2021/06/01 08:09:13;;;;;;;19.35;6.63;;;;;;;19.15;41.18;101696.28;5093613;28;20077;-66
2021/06/01 08:11:38;;;;;;;20.13;6.70;;;;;;;19.36;42.63;101679.81;5090042;28;20032;-66
2021/06/01 08:14:04;;;;;;;19.33;6.53;;;;;;;19.57;41.34;101689.22;5091952;28;20051;-66
2021/06/01 08:16:31;;;;;;;19.77;6.90;;;;;;;19.80;41.16;101687.00;5091327;28;20074;-66
2021/06/01 08:19:09;;;;;;;19.73;6.43;;;;;;;19.88;40.08;101677.91;5092490;28;20031;-65
2021/06/01 08:24:08;;;;;;;17.30;5.82;;;;;;;20.06;37.38;101680.19;5090272;28;20067;-64
2021/06/01 08:26:34;;;;;;;16.83;5.38;;;;;;;20.09;36.63;101680.13;5093091;28;20089;-65
2021/06/01 08:28:59;;;;;;;17.13;5.30;;;;;;;20.18;35.79;101670.97;5086565;28;20536;-65
2021/06/01 08:31:26;;;;;;;15.48;5.30;;;;;;;20.26;37.04;101666.34;5091213;28;20134;-65
2021/06/01 08:33:51;;;;;;;16.40;5.20;;;;;;;20.25;35.56;101669.94;5093431;28;20016;-65
2021/06/01 08:36:16;;;;;;;15.65;5.00;;;;;;;20.32;36.86;101668.88;5092252;28;20093;-65
2021/06/01 08:38:42;;;;;;;15.23;4.88;;;;;;;20.43;34.27;101663.25;5091857;28;20028;-65
2021/06/01 08:41:07;;;;;;;15.23;5.05;;;;;;;20.55;33.81;101672.81;5090555;28;20049;-65
2021/06/01 08:43:33;;;;;;;16.52;4.88;;;;;;;20.66;34.40;101657.38;5091031;28;20068;-65
2021/06/01 08:45:59;;;;;;;15.13;5.00;;;;;;;20.90;32.42;101663.91;5092551;28;20429;-65
2021/06/01 08:48:26;;;;;;;13.35;4.90;;;;;;;21.00;32.92;101658.28;5090924;28;20020;-65
2021/06/01 08:50:54;;;;;;;16.50;4.90;;;;;;;21.14;31.87;101660.59;5087811;28;20036;-66
2021/06/01 08:53:20;;;;;;;14.93;4.57;;;;;;;21.27;31.50;101653.09;5100625;28;20024;-66
2021/06/01 08:55:46;;;;;;;14.75;4.85;;;;;;;21.47;31.44;101653.41;5101196;28;20073;-66
2021/06/01 08:58:17;;;;;;;15.30;4.90;;;;;;;21.60;31.17;101653.97;5103743;28;20020;-66
2021/06/01 09:00:43;;;;;;;14.15;4.60;;;;;;;21.66;30.88;101655.63;5100949;28;20056;-66
2021/06/01 09:03:11;;;;;;;14.73;4.78;;;;;;;21.75;30.98;101655.31;5104333;28;20498;-65
2021/06/01 09:06:00;;;;;;;17.27;4.82;;;;;;;21.74;31.11;101656.25;5100927;28;20048;-66
2021/06/01 09:08:43;;;;;;;14.45;4.70;;;;;;;22.05;31.05;101644.56;5089585;28;20418;-78
2021/06/01 09:11:17;;;;;;;19.10;4.93;;;;;;;22.24;30.74;101644.88;5089067;28;20398;-73
2021/06/01 09:14:10;;;;;;;15.98;4.65;;;;;;;22.14;30.10;101640.72;5093059;28;20056;-68
2021/06/01 09:22:03;;;;;;;15.50;4.57;;;;;;;22.46;29.49;101648.66;5095663;28;20151;-66
2021/06/01 09:24:29;;;;;;;14.80;4.70;;;;;;;22.49;29.66;101655.75;5094874;28;20036;-68
2021/06/01 09:27:02;;;;;;;14.50;4.57;;;;;;;22.50;30.24;101649.44;5095174;28;20374;-67
2021/06/01 09:29:30;;;;;;;12.20;4.28;;;;;;;22.69;30.04;101647.03;5095437;28;20035;-65
2021/06/01 09:32:04;;;;;;;16.10;4.80;;;;;;;22.72;29.14;101641.53;5095902;28;20020;-66
2021/06/01 09:34:45;;;;;;;14.85;4.60;;;;;;;22.84;29.96;101637.53;5093838;28;20487;-66
2021/06/01 09:37:37;;;;;;;16.00;4.90;;;;;;;23.13;28.89;101635.66;5093889;28;20100;-72
2021/06/01 09:40:07;;;;;;;13.40;4.60;;;;;;;23.13;29.21;101636.53;5092569;28;20121;-65
2021/06/01 09:42:34;;;;;;;14.70;4.68;;;;;;;23.22;28.25;101627.22;5094438;28;20425;-66
2021/06/01 09:45:20;;;;;;;15.02;4.47;;;;;;;23.37;29.21;101633.00;5092358;28;20374;-65
2021/06/01 09:47:48;;;;;;;14.23;4.88;;;;;;;23.19;27.86;101632.72;5093228;28;20108;-65
2021/06/01 09:50:38;;;;;;;14.30;4.25;;;;;;;23.32;28.21;101625.94;5094427;28;20501;-65
2021/06/01 09:53:26;;;;;;;16.55;4.65;;;;;;;23.35;28.66;101624.97;5092580;28;20031;-65
2021/06/01 09:55:53;;;;;;;14.20;4.60;;;;;;;23.66;27.28;101629.19;5096154;28;20035;-66
2021/06/01 09:58:30;;;;;;;15.63;4.40;;;;;;;24.13;28.62;101617.50;5092924;28;20028;-64
2021/06/01 10:00:57;;;;;;;12.48;4.40;;;;;;;25.01;27.07;101617.41;5093512;28;20028;-63
2021/06/01 10:03:25;;;;;;;12.75;4.18;;;;;;;26.40;24.13;101605.56;5094806;28;20027;-63
2021/06/01 10:05:56;;;;;;;15.30;4.40;;;;;;;28.68;21.51;101607.66;5092550;28;20047;-63
2021/06/01 10:08:27;;;;;;;12.20;4.20;;;;;;;30.20;21.02;101609.94;5094666;28;20039;-63
2021/06/01 10:10:58;;;;;;;11.82;3.97;;;;;;;30.34;19.72;101606.28;5093064;28;20105;-64
2021/06/01 10:13:26;;;;;;;13.60;4.35;;;;;;;31.26;18.68;101607.25;5095468;28;20031;-64
2021/06/01 10:15:55;;;;;;;12.35;4.30;;;;;;;31.20;18.77;101602.25;5093252;28;20028;-63
2021/06/01 10:18:21;;;;;;;14.52;4.10;;;;;;;31.66;17.92;101603.53;5095981;28;20024;-64
2021/06/01 10:20:49;;;;;;;15.00;4.22;;;;;;;32.51;17.33;101598.09;5094646;28;20024;-64
2021/06/01 10:23:19;;;;;;;12.70;4.15;;;;;;;33.00;16.28;101599.75;5102921;28;20028;-65
2021/06/01 10:25:44;;;;;;;12.18;4.45;;;;;;;32.88;17.75;101589.75;5102853;28;20103;-64
2021/06/01 10:28:11;;;;;;;12.82;4.25;;;;;;;33.31;16.35;101594.59;5105881;28;20051;-64
2021/06/01 10:30:39;;;;;;;13.95;4.30;;;;;;;33.19;16.31;101592.81;5103407;28;20475;-64
2021/06/01 10:33:11;;;;;;;16.50;4.45;;;;;;;33.28;18.02;101589.34;5104868;28;20038;-64
2021/06/01 10:35:42;;;;;;;12.25;4.32;;;;;;;33.43;16.54;101583.63;5103644;28;20028;-64
2021/06/01 10:52:25;;;;;;;11.05;4.00;;;;;;;34.94;15.47;101579.22;5099140;28;20462;-64
2021/06/01 10:55:13;;;;;;;16.95;4.32;;;;;;;35.50;15.81;101563.31;5105936;28;20027;-64
2021/06/01 10:57:58;;;;;;;12.07;4.13;;;;;;;36.21;14.17;101571.41;5101982;28;20043;-64
2021/06/01 11:03:13;;;;;;;13.10;4.30;;;;;;;36.15;13.35;101563.75;5102635;28;20024;-64
2021/06/01 11:05:56;;;;;;;13.55;4.30;;;;;;;35.85;13.74;101553.72;5103583;28;20031;-64
2021/06/01 11:08:43;;;;;;;13.60;4.40;;;;;;;35.30;14.84;101555.00;5099279;28;20032;-64
2021/06/01 11:11:31;;;;;;;13.68;4.20;;;;;;;35.19;14.62;101542.19;5091682;28;20067;-65
2021/06/01 11:14:00;;;;;;;11.85;3.90;;;;;;;35.49;13.65;101547.81;5089513;28;20028;-66
2021/06/01 11:16:26;;;;;;;11.23;4.10;;;;;;;35.80;14.14;101540.41;5089745;28;20020;-66
2021/06/01 11:18:58;;;;;;;12.68;4.10;;;;;;;35.88;13.46;101535.09;5091164;28;20020;-66
2021/06/01 11:24:37;;;;;;;14.48;4.30;;;;;;;35.80;14.26;101545.91;5092704;28;20056;-65
2021/06/01 11:35:39;;;;;;;15.70;4.53;;;;;;;35.70;14.94;101529.34;5091901;28;20051;-65
2021/06/01 11:43:12;;;;;;;12.23;4.20;;;;;;;36.18;13.16;101521.34;5091852;28;20044;-65
2021/06/01 11:51:18;;;;;;;11.85;4.35;;;;;;;36.35;13.97;101517.00;5094173;28;20131;-77
2021/06/01 11:53:54;;;;;;;11.80;4.10;;;;;;;37.66;13.38;101513.38;5090790;28;20470;-76
2021/06/01 11:57:03;;;;;;;13.85;4.25;;;;;;;37.41;13.25;101512.22;5089678;28;20470;-77
2021/06/01 12:05:10;;;;;;;12.93;4.10;;;;;;;36.73;12.79;101506.91;5089672;28;20028;-65
2021/06/01 12:18:40;;;;;;;16.92;4.53;;;;;;;37.24;12.04;101510.22;5100810;28;20039;-65
2021/06/01 12:21:07;;;;;;;12.63;4.50;;;;;;;36.80;12.46;101499.84;5101423;28;20463;-65
2021/06/01 12:23:35;;;;;;;14.27;4.60;;;;;;;37.24;12.26;101499.22;5102270;28;20050;-65
2021/06/01 12:26:05;;;;;;;14.38;4.35;;;;;;;38.29;11.99;101485.94;5103623;28;20027;-65
2021/06/01 12:31:26;;;;;;;12.73;4.18;;;;;;;39.19;12.88;101494.81;5050520;28;20075;-66
2021/06/01 12:34:00;;;;;;;12.48;4.38;;;;;;;38.88;11.29;101492.56;5050476;28;20545;-65
2021/06/01 12:42:59;;;;;;;16.23;4.90;;;;;;;39.66;11.96;101487.03;5050482;28;20087;-66